Time;durP1;ratioP1;P1;durP2;ratioP2;P2;SDS_P1;SDS_P2;PMS_P1;PMS_P2;Temp;Humidity;BMP_temperature;BMP_pressure;BME280_temperature;BME280_humidity;BME280_pressure;Samples;Min_cycle;Max_cycle;Signal;HPM_P1;HPM_P2
2022/05/08 00:02:43;;;;;;;15.30;12.25;;;;;;;;;;6226486;28;20046;-71
2022/05/08 00:05:45;;;;;;;13.68;11.73;;;;;;;;;;6226116;28;20382;-71
2022/05/08 00:08:47;;;;;;;13.07;11.00;;;;;;;;;;6222703;28;20073;-71
2022/05/08 00:11:48;;;;;;;13.68;10.90;;;;;;;;;;6226674;28;20046;-72
2022/05/08 00:14:50;;;;;;;17.05;12.02;;;;;;;;;;6220203;28;20097;-71
2022/05/08 00:17:53;;;;;;;16.08;12.45;;;;;;;;;;6222150;28;20053;-71
2022/05/08 00:20:54;;;;;;;16.03;12.40;;;;;;;;;;6220546;28;20264;-71
2022/05/08 00:23:56;;;;;;;16.52;11.38;;;;;;;;;;6225061;28;20103;-68
2022/05/08 00:26:57;;;;;;;18.73;12.30;;;;;;;;;;6223682;28;20112;-69
2022/05/08 00:29:59;;;;;;;15.32;12.10;;;;;;;;;;6224074;28;20101;-69
2022/05/08 00:33:02;;;;;;;14.43;11.75;;;;;;;;;;6221234;28;20046;-71
2022/05/08 00:36:04;;;;;;;16.27;12.27;;;;;;;;;;6221621;28;20332;-69
2022/05/08 00:39:06;;;;;;;16.08;11.82;;;;;;;;;;6224337;28;20057;-69
2022/05/08 00:42:08;;;;;;;14.38;11.55;;;;;;;;;;6219855;28;20093;-68
2022/05/08 00:45:10;;;;;;;14.98;11.80;;;;;;;;;;6220537;28;20112;-69
2022/05/08 00:48:13;;;;;;;14.02;10.93;;;;;;;;;;6223398;28;20088;-68
2022/05/08 00:51:17;;;;;;;14.40;11.70;;;;;;;;;;6225037;28;20096;-69
2022/05/08 00:54:18;;;;;;;16.33;12.30;;;;;;;;;;6228256;28;20383;-69
2022/05/08 00:57:21;;;;;;;14.00;11.13;;;;;;;;;;6227461;28;20093;-69
2022/05/08 01:00:23;;;;;;;14.48;10.48;;;;;;;;;;6224884;28;20054;-69
2022/05/08 01:03:26;;;;;;;12.55;9.93;;;;;;;;;;6220066;28;20046;-70
2022/05/08 01:06:28;;;;;;;13.47;9.67;;;;;;;;;;6219776;28;20097;-70
2022/05/08 01:09:30;;;;;;;13.90;9.68;;;;;;;;;;6222293;28;20097;-69
2022/05/08 01:12:33;;;;;;;11.90;8.95;;;;;;;;;;6220156;28;20057;-69
2022/05/08 01:15:42;;;;;;;11.43;9.85;;;;;;;;;;6213123;28;20062;-70
2022/05/08 01:18:46;;;;;;;11.65;9.82;;;;;;;;;;6220661;28;20093;-70
2022/05/08 01:21:49;;;;;;;;;;;;;;;;;;6227106;28;20041;-70
2022/05/08 01:24:50;;;;;;;11.93;9.57;;;;;;;;;;6223650;28;19924;-69
2022/05/08 01:27:52;;;;;;;12.23;9.50;;;;;;;;;;6222514;28;20046;-70
2022/05/08 01:30:54;;;;;;;11.73;9.13;;;;;;;;;;6220941;28;20072;-69
2022/05/08 01:33:56;;;;;;;12.50;9.75;;;;;;;;;;6224972;28;20340;-69
2022/05/08 01:36:59;;;;;;;12.93;8.80;;;;;;;;;;6220626;28;20121;-69
2022/05/08 01:40:01;;;;;;;12.03;9.63;;;;;;;;;;6224776;28;20050;-70
2022/05/08 01:43:03;;;;;;;12.95;9.93;;;;;;;;;;6220166;28;20043;-69
2022/05/08 01:46:04;;;;;;;14.90;10.52;;;;;;;;;;6229103;28;20076;-69
2022/05/08 01:49:05;;;;;;;13.15;11.07;;;;;;;;;;6230406;28;20077;-70
2022/05/08 01:52:09;;;;;;;15.23;12.00;;;;;;;;;;6235098;28;20046;-70
2022/05/08 01:55:10;;;;;;;;;;;;;;;;;;6231101;28;20379;-70
2022/05/08 01:58:12;;;;;;;19.38;14.98;;;;;;;;;;6226560;28;19921;-70
2022/05/08 02:01:14;;;;;;;20.33;14.38;;;;;;;;;;6226027;28;20053;-70
2022/05/08 02:04:16;;;;;;;18.05;13.25;;;;;;;;;;6230493;28;20057;-70
2022/05/08 02:07:19;;;;;;;16.77;13.52;;;;;;;;;;6225838;28;20058;-70
2022/05/08 02:10:21;;;;;;;17.73;12.80;;;;;;;;;;6226786;28;20057;-70
2022/05/08 02:13:23;;;;;;;15.75;11.88;;;;;;;;;;6227513;28;20113;-70
2022/05/08 02:16:24;;;;;;;17.13;11.35;;;;;;;;;;6224878;28;20046;-70
2022/05/08 02:19:26;;;;;;;17.27;12.50;;;;;;;;;;6228496;28;20121;-70
2022/05/08 02:22:29;;;;;;;16.77;12.38;;;;;;;;;;6229728;28;20092;-70
2022/05/08 02:25:31;;;;;;;16.05;12.95;;;;;;;;;;6223612;28;20093;-70
2022/05/08 02:28:33;;;;;;;16.63;12.38;;;;;;;;;;6223928;28;20285;-70
2022/05/08 02:31:34;;;;;;;17.73;11.90;;;;;;;;;;6226033;28;20057;-70
2022/05/08 02:34:36;;;;;;;16.90;12.32;;;;;;;;;;6220639;28;20283;-70
2022/05/08 02:37:39;;;;;;;18.90;12.57;;;;;;;;;;6227605;28;20294;-70
2022/05/08 02:40:41;;;;;;;16.45;12.88;;;;;;;;;;6219792;28;20088;-70
2022/05/08 02:43:42;;;;;;;15.23;10.82;;;;;;;;;;6227618;28;20050;-70
2022/05/08 02:46:44;;;;;;;14.70;10.30;;;;;;;;;;6226105;28;20050;-70
2022/05/08 02:49:46;;;;;;;12.02;9.95;;;;;;;;;;6225794;28;20291;-70
2022/05/08 02:52:49;;;;;;;13.90;9.48;;;;;;;;;;6225742;28;20104;-70
2022/05/08 02:59:10;;;;;;;10.75;9.00;;;;;;;;;;6222628;28;20046;-70
2022/05/08 03:02:11;;;;;;;9.07;7.95;;;;;;;;;;6221234;28;20052;-70
2022/05/08 03:05:16;;;;;;;12.18;8.27;;;;;;;;;;6217364;28;20046;-70
2022/05/08 03:08:19;;;;;;;10.52;9.27;;;;;;;;;;6221664;28;20054;-70
2022/05/08 03:11:27;;;;;;;12.70;8.98;;;;;;;;;;6219923;28;20050;-70
2022/05/08 03:14:28;;;;;;;12.43;9.23;;;;;;;;;;6221056;28;20060;-70
2022/05/08 03:17:31;;;;;;;11.90;8.93;;;;;;;;;;6224452;28;20046;-70
2022/05/08 03:20:33;;;;;;;11.38;9.07;;;;;;;;;;6221390;28;20057;-70
2022/05/08 03:23:36;;;;;;;11.68;9.20;;;;;;;;;;6221719;28;20050;-70
2022/05/08 03:26:37;;;;;;;12.10;9.10;;;;;;;;;;6221334;28;20097;-70
2022/05/08 03:29:39;;;;;;;12.25;9.07;;;;;;;;;;6220615;28;20053;-71
2022/05/08 03:32:42;;;;;;;11.15;9.27;;;;;;;;;;6214872;28;20058;-70
2022/05/08 03:35:43;;;;;;;11.82;10.00;;;;;;;;;;6224302;28;20104;-70
2022/05/08 03:38:47;;;;;;;12.73;10.15;;;;;;;;;;6222556;28;20108;-70
2022/05/08 03:41:48;;;;;;;16.08;10.27;;;;;;;;;;6220802;28;20267;-70
2022/05/08 03:44:53;;;;;;;12.77;10.07;;;;;;;;;;6215222;28;20108;-70
2022/05/08 03:47:54;;;;;;;12.82;10.40;;;;;;;;;;6227198;28;20086;-70
2022/05/08 03:50:56;;;;;;;13.07;10.82;;;;;;;;;;6219879;28;20232;-70
2022/05/08 03:53:59;;;;;;;15.80;11.20;;;;;;;;;;6222137;28;20054;-70
2022/05/08 03:57:01;;;;;;;14.02;11.07;;;;;;;;;;6222410;28;20046;-70
2022/05/08 04:00:02;;;;;;;14.13;10.52;;;;;;;;;;6233676;28;20056;-70
2022/05/08 04:03:04;;;;;;;15.82;10.80;;;;;;;;;;6231412;28;20041;-70
2022/05/08 04:06:05;;;;;;;12.38;9.82;;;;;;;;;;6229698;28;20328;-70
2022/05/08 04:09:09;;;;;;;12.65;9.82;;;;;;;;;;6227113;28;20236;-70
2022/05/08 04:12:10;;;;;;;12.40;9.73;;;;;;;;;;6226620;28;20058;-70
2022/05/08 04:18:27;;;;;;;11.27;8.18;;;;;;;;;;6224445;28;20061;-70
2022/05/08 04:21:29;;;;;;;8.93;7.22;;;;;;;;;;6220772;28;20273;-70
2022/05/08 04:24:31;;;;;;;8.00;6.53;;;;;;;;;;6220059;28;20096;-70
2022/05/08 04:27:33;;;;;;;7.88;6.53;;;;;;;;;;6224785;28;20237;-70
2022/05/08 04:30:36;;;;;;;7.45;5.97;;;;;;;;;;6231288;28;20050;-70
2022/05/08 04:33:37;;;;;;;6.65;5.70;;;;;;;;;;6226583;28;20097;-70
2022/05/08 04:36:39;;;;;;;6.80;6.05;;;;;;;;;;6224872;28;20054;-70
2022/05/08 04:39:42;;;;;;;7.65;6.53;;;;;;;;;;6222603;28;20050;-70
2022/05/08 04:42:44;;;;;;;8.53;6.23;;;;;;;;;;6221833;28;20057;-70
2022/05/08 04:45:45;;;;;;;6.40;5.47;;;;;;;;;;6222828;28;20054;-70
2022/05/08 04:48:47;;;;;;;6.15;5.32;;;;;;;;;;6218482;28;20050;-70
2022/05/08 04:51:48;;;;;;;6.13;5.25;;;;;;;;;;6223424;28;20046;-70
2022/05/08 04:54:51;;;;;;;7.15;5.78;;;;;;;;;;6218904;28;20069;-70
2022/05/08 04:57:53;;;;;;;6.90;5.70;;;;;;;;;;6219761;28;20079;-70
2022/05/08 05:00:54;;;;;;;5.93;5.32;;;;;;;;;;6223618;28;20108;-70
2022/05/08 05:03:56;;;;;;;8.55;5.78;;;;;;;;;;6223875;28;20046;-70
2022/05/08 05:06:59;;;;;;;6.13;5.10;;;;;;;;;;6222761;28;20046;-70
2022/05/08 05:10:02;;;;;;;6.07;5.22;;;;;;;;;;6220036;28;20058;-70
2022/05/08 05:13:03;;;;;;;6.23;5.20;;;;;;;;;;6217958;28;20073;-70
2022/05/08 05:16:05;;;;;;;6.43;5.13;;;;;;;;;;6218534;28;20054;-71
2022/05/08 05:19:07;;;;;;;7.90;4.95;;;;;;;;;;6216101;28;20041;-70
2022/05/08 05:22:08;;;;;;;6.15;5.20;;;;;;;;;;6221382;28;20347;-70
2022/05/08 05:25:12;;;;;;;6.68;5.40;;;;;;;;;;6227686;28;20053;-70
2022/05/08 05:28:13;;;;;;;;;;;;;;;;;;6225535;28;20061;-70
2022/05/08 05:31:15;;;;;;;5.00;4.50;;;;;;;;;;6224185;28;19917;-71
2022/05/08 05:34:17;;;;;;;5.15;4.65;;;;;;;;;;6221077;28;20117;-70
2022/05/08 05:37:19;;;;;;;6.80;5.00;;;;;;;;;;6226343;28;20105;-70
2022/05/08 05:40:22;;;;;;;5.03;4.13;;;;;;;;;;6222721;28;20065;-70
2022/05/08 05:43:23;;;;;;;4.63;3.80;;;;;;;;;;6225690;28;20053;-70
2022/05/08 05:49:44;;;;;;;4.28;3.67;;;;;;;;;;6229219;28;20042;-70
2022/05/08 05:52:45;;;;;;;4.07;3.60;;;;;;;;;;6228061;28;20051;-68
2022/05/08 05:55:48;;;;;;;4.97;3.88;;;;;;;;;;6222673;28;20308;-69
2022/05/08 05:58:50;;;;;;;4.15;3.40;;;;;;;;;;6222931;28;20268;-70
2022/05/08 06:01:52;;;;;;;5.20;3.72;;;;;;;;;;6228234;28;20096;-68
2022/05/08 06:04:53;;;;;;;5.68;3.63;;;;;;;;;;6220024;28;20053;-69
2022/05/08 06:07:55;;;;;;;3.65;3.05;;;;;;;;;;6217672;28;20050;-69
2022/05/08 06:10:58;;;;;;;4.05;3.25;;;;;;;;;;6221831;28;20110;-70
2022/05/08 06:14:00;;;;;;;3.83;3.07;;;;;;;;;;6217768;28;21389;-70
2022/05/08 06:17:01;;;;;;;5.32;3.40;;;;;;;;;;6223782;28;20100;-70
2022/05/08 06:20:03;;;;;;;3.92;3.10;;;;;;;;;;6227992;28;20128;-70
2022/05/08 06:23:05;;;;;;;4.50;2.72;;;;;;;;;;6227232;28;20372;-70
2022/05/08 06:26:08;;;;;;;4.63;3.13;;;;;;;;;;6224302;28;20056;-70
2022/05/08 06:29:10;;;;;;;4.30;2.97;;;;;;;;;;6227198;28;20236;-70
2022/05/08 06:32:11;;;;;;;3.30;2.80;;;;;;;;;;6227107;28;20535;-70
2022/05/08 06:35:13;;;;;;;5.53;3.20;;;;;;;;;;6223228;28;21354;-72
2022/05/08 06:38:15;;;;;;;5.40;3.00;;;;;;;;;;6221297;28;20337;-70
2022/05/08 06:41:18;;;;;;;3.47;2.83;;;;;;;;;;6224135;28;20046;-70
2022/05/08 06:44:19;;;;;;;5.40;3.27;;;;;;;;;;6228880;28;20057;-70
2022/05/08 06:47:21;;;;;;;5.30;3.20;;;;;;;;;;6232535;28;20457;-70
2022/05/08 06:50:23;;;;;;;4.18;2.97;;;;;;;;;;6234427;28;20104;-70
2022/05/08 06:53:25;;;;;;;4.40;3.38;;;;;;;;;;6224099;28;20301;-69
2022/05/08 06:56:31;;;;;;;4.70;3.28;;;;;;;;;;6226856;28;20288;-70
2022/05/08 07:02:51;;;;;;;5.82;3.30;;;;;;;;;;6220586;28;20042;-70
2022/05/08 07:05:54;;;;;;;4.05;3.20;;;;;;;;;;6224639;28;20058;-70
2022/05/08 07:08:55;;;;;;;6.05;3.00;;;;;;;;;;6227498;28;20045;-70
2022/05/08 07:11:58;;;;;;;5.28;2.90;;;;;;;;;;6231803;28;20386;-70
2022/05/08 07:15:00;;;;;;;5.53;2.33;;;;;;;;;;6228210;28;20049;-70
2022/05/08 07:18:02;;;;;;;2.72;2.40;;;;;;;;;;6222116;28;20050;-70
2022/05/08 07:21:04;;;;;;;6.15;2.50;;;;;;;;;;6222699;28;20333;-68
2022/05/08 07:24:08;;;;;;;2.57;2.20;;;;;;;;;;6224317;28;20567;-68
2022/05/08 07:27:11;;;;;;;3.40;1.70;;;;;;;;;;6220123;28;20046;-68
2022/05/08 07:30:14;;;;;;;4.85;3.40;;;;;;;;;;6222847;28;20054;-69
2022/05/08 07:33:16;;;;;;;2.13;1.48;;;;;;;;;;6216213;28;20233;-68
2022/05/08 07:36:17;;;;;;;2.58;1.23;;;;;;;;;;6222873;28;20100;-68
2022/05/08 07:39:19;;;;;;;2.10;1.02;;;;;;;;;;6226005;28;20332;-69
2022/05/08 07:42:22;;;;;;;1.17;1.08;;;;;;;;;;6221573;28;20058;-69
2022/05/08 07:45:24;;;;;;;1.20;1.05;;;;;;;;;;6215643;28;20054;-69
2022/05/08 07:48:26;;;;;;;2.42;1.30;;;;;;;;;;6222851;28;20053;-68
2022/05/08 07:51:28;;;;;;;1.73;1.25;;;;;;;;;;6218433;28;20066;-68
2022/05/08 07:54:29;;;;;;;1.75;1.30;;;;;;;;;;6218876;28;20101;-69
2022/05/08 07:57:32;;;;;;;3.28;1.40;;;;;;;;;;6220287;28;20414;-68
2022/05/08 08:00:36;;;;;;;1.40;1.30;;;;;;;;;;6220899;28;20319;-69
2022/05/08 08:03:37;;;;;;;;;;;;;;;;;;6224851;28;20105;-69
2022/05/08 08:06:40;;;;;;;1.20;1.08;;;;;;;;;;6223205;28;19921;-69
2022/05/08 08:09:42;;;;;;;1.42;1.23;;;;;;;;;;6221295;28;20065;-68
2022/05/08 08:12:45;;;;;;;1.98;1.48;;;;;;;;;;6224130;28;20050;-69
2022/05/08 08:15:47;;;;;;;1.60;1.13;;;;;;;;;;6222900;28;20104;-69
2022/05/08 08:18:49;;;;;;;1.58;1.10;;;;;;;;;;6220717;28;20053;-69
2022/05/08 08:21:50;;;;;;;1.70;1.17;;;;;;;;;;6220025;28;20050;-69
2022/05/08 08:24:52;;;;;;;1.30;1.13;;;;;;;;;;6218936;28;20329;-69
2022/05/08 08:27:55;;;;;;;1.60;1.10;;;;;;;;;;6221775;28;20096;-69
2022/05/08 08:30:56;;;;;;;1.35;0.90;;;;;;;;;;6216720;28;20093;-69
2022/05/08 08:33:58;;;;;;;2.13;1.08;;;;;;;;;;6225376;28;20045;-68
2022/05/08 08:37:00;;;;;;;2.13;1.30;;;;;;;;;;6223186;28;20061;-68
2022/05/08 08:40:02;;;;;;;1.85;1.13;;;;;;;;;;6226995;28;20104;-69
2022/05/08 08:43:05;;;;;;;2.10;1.48;;;;;;;;;;6224944;28;20252;-68
2022/05/08 08:49:28;;;;;;;1.35;1.20;;;;;;;;;;6225056;28;20054;-69
2022/05/08 08:52:29;;;;;;;1.80;1.05;;;;;;;;;;6217562;28;20050;-68
2022/05/08 08:55:31;;;;;;;1.55;1.23;;;;;;;;;;6219147;28;20064;-68
2022/05/08 08:58:35;;;;;;;1.38;1.20;;;;;;;;;;6217238;28;20374;-69
2022/05/08 09:01:41;;;;;;;1.55;1.00;;;;;;;;;;6226225;28;20101;-69
2022/05/08 09:04:43;;;;;;;1.25;1.15;;;;;;;;;;6217587;28;20110;-69
2022/05/08 09:07:45;;;;;;;1.75;1.10;;;;;;;;;;6220529;28;20264;-69
2022/05/08 09:10:47;;;;;;;1.80;1.10;;;;;;;;;;6223304;28;20085;-69
2022/05/08 09:13:51;;;;;;;1.23;1.10;;;;;;;;;;6220829;28;20050;-69
2022/05/08 09:16:53;;;;;;;1.63;1.30;;;;;;;;;;6224384;28;20364;-69
2022/05/08 09:19:54;;;;;;;1.40;1.25;;;;;;;;;;6230366;28;20121;-68
2022/05/08 09:23:08;;;;;;;1.83;1.30;;;;;;;;;;6218744;28;20046;-68
2022/05/08 09:26:10;;;;;;;1.55;1.15;;;;;;;;;;6223504;28;20050;-69
2022/05/08 09:29:22;;;;;;;1.33;1.17;;;;;;;;;;6226772;28;20053;-68
2022/05/08 09:32:35;;;;;;;1.40;1.23;;;;;;;;;;6221967;28;20089;-69
2022/05/08 09:35:44;;;;;;;3.13;1.30;;;;;;;;;;6214380;28;20050;-68
2022/05/08 09:38:47;;;;;;;1.77;1.13;;;;;;;;;;6221706;28;20294;-69
2022/05/08 09:41:49;;;;;;;2.10;1.30;;;;;;;;;;6217833;28;20042;-69
2022/05/08 09:45:07;;;;;;;2.42;1.30;;;;;;;;;;6225639;28;20087;-69
2022/05/08 09:48:09;;;;;;;1.45;1.30;;;;;;;;;;6224817;28;20272;-68
2022/05/08 09:51:11;;;;;;;1.50;1.33;;;;;;;;;;6221176;28;20049;-69
2022/05/08 09:54:14;;;;;;;1.63;1.52;;;;;;;;;;6226219;28;20062;-69
2022/05/08 09:57:16;;;;;;;2.75;1.30;;;;;;;;;;6215969;28;20081;-69
2022/05/08 10:00:19;;;;;;;1.73;1.20;;;;;;;;;;6221187;28;20230;-68
2022/05/08 10:03:21;;;;;;;3.03;1.25;;;;;;;;;;6217242;28;20092;-68
2022/05/08 10:06:24;;;;;;;2.30;1.60;;;;;;;;;;6214857;28;20311;-68
2022/05/08 10:16:06;;;;;;;1.95;1.70;;;;;;;;;;6226976;28;20041;-68
2022/05/08 10:19:53;;;;;;;2.45;2.03;;;;;;;;;;6226287;28;20106;-68
2022/05/08 10:22:55;;;;;;;1.73;1.33;;;;;;;;;;6226303;28;20053;-68
2022/05/08 10:26:13;;;;;;;2.50;1.35;;;;;;;;;;6228739;28;20095;-68
2022/05/08 10:29:15;;;;;;;1.70;1.33;;;;;;;;;;6223533;28;20089;-68
2022/05/08 10:32:53;;;;;;;1.75;1.30;;;;;;;;;;6213772;28;20054;-68
2022/05/08 10:36:07;;;;;;;1.67;1.38;;;;;;;;;;6219668;28;20042;-68
2022/05/08 10:39:37;;;;;;;1.45;1.30;;;;;;;;;;6221670;28;20296;-69
2022/05/08 10:42:45;;;;;;;1.50;1.20;;;;;;;;;;6223341;28;20054;-68
2022/05/08 10:45:47;;;;;;;1.88;1.50;;;;;;;;;;6229112;28;20106;-69
2022/05/08 10:48:51;;;;;;;2.47;1.40;;;;;;;;;;6227070;28;20253;-68
2022/05/08 10:51:53;;;;;;;2.03;1.50;;;;;;;;;;6228170;28;20248;-69
2022/05/08 10:54:58;;;;;;;1.92;1.40;;;;;;;;;;6228475;28;20073;-69
2022/05/08 10:57:59;;;;;;;3.50;2.10;;;;;;;;;;6225905;28;20050;-69
2022/05/08 11:01:03;;;;;;;2.00;1.75;;;;;;;;;;6225527;28;20046;-68
2022/05/08 11:04:12;;;;;;;4.25;2.38;;;;;;;;;;6218845;28;20367;-68
2022/05/08 11:07:14;;;;;;;3.53;2.42;;;;;;;;;;6217811;28;20042;-69
2022/05/08 11:10:17;;;;;;;3.38;2.13;;;;;;;;;;6223359;28;20046;-69
2022/05/08 11:13:18;;;;;;;2.90;2.60;;;;;;;;;;6234059;28;20292;-69
2022/05/08 11:16:36;;;;;;;3.40;2.83;;;;;;;;;;6222511;28;20046;-69
2022/05/08 11:19:52;;;;;;;3.92;2.10;;;;;;;;;;6225709;28;20046;-69
2022/05/08 11:22:57;;;;;;;3.28;2.97;;;;;;;;;;6224067;28;20069;-70
2022/05/08 11:26:00;;;;;;;3.17;2.30;;;;;;;;;;6224820;28;20046;-69
2022/05/08 11:29:02;;;;;;;4.15;2.53;;;;;;;;;;6230198;28;20108;-69
2022/05/08 11:38:50;;;;;;;2.30;2.10;;;;;;;;;;6215213;28;20109;-69
2022/05/08 11:41:52;;;;;;;2.40;2.20;;;;;;;;;;6217084;28;20359;-68
2022/05/08 11:45:06;;;;;;;3.10;2.17;;;;;;;;;;6219332;28;20343;-69
2022/05/08 11:48:08;;;;;;;3.58;2.60;;;;;;;;;;6227823;28;20052;-68
2022/05/08 11:51:11;;;;;;;2.33;2.13;;;;;;;;;;6225965;28;20046;-69
2022/05/08 11:54:32;;;;;;;2.72;2.20;;;;;;;;;;6225494;28;20080;-69
2022/05/08 11:57:41;;;;;;;2.33;2.10;;;;;;;;;;6226787;28;20359;-69
2022/05/08 12:00:43;;;;;;;2.38;1.77;;;;;;;;;;6224820;28;20054;-69
2022/05/08 12:03:45;;;;;;;2.88;2.58;;;;;;;;;;6225213;28;20053;-69
2022/05/08 12:06:59;;;;;;;2.70;2.08;;;;;;;;;;6217350;28;20050;-69
2022/05/08 12:10:00;;;;;;;3.22;2.15;;;;;;;;;;6216817;28;20317;-70
2022/05/08 12:13:06;;;;;;;3.05;2.25;;;;;;;;;;6224697;28;20405;-69
2022/05/08 12:16:15;;;;;;;3.25;2.50;;;;;;;;;;6223326;28;20232;-69
2022/05/08 12:19:19;;;;;;;2.80;2.50;;;;;;;;;;6223766;28;20050;-69
2022/05/08 12:22:24;;;;;;;2.75;2.15;;;;;;;;;;6227446;28;20056;-69
2022/05/08 12:25:26;;;;;;;2.78;2.55;;;;;;;;;;6221230;28;20092;-69
2022/05/08 12:28:28;;;;;;;4.00;3.22;;;;;;;;;;6223760;28;20049;-69
2022/05/08 12:31:30;;;;;;;4.53;2.95;;;;;;;;;;6226722;28;20057;-69
2022/05/08 12:34:31;;;;;;;3.90;2.90;;;;;;;;;;6218642;28;20050;-69
2022/05/08 12:37:34;;;;;;;4.93;3.35;;;;;;;;;;6224988;28;20105;-69
2022/05/08 12:40:36;;;;;;;3.45;3.15;;;;;;;;;;6214560;28;20101;-69
2022/05/08 12:43:38;;;;;;;7.00;3.08;;;;;;;;;;6214284;28;20073;-69
2022/05/08 12:46:39;;;;;;;3.72;3.40;;;;;;;;;;6220008;28;20104;-69
2022/05/08 12:49:42;;;;;;;3.03;2.72;;;;;;;;;;6222584;28;20329;-69
2022/05/08 12:52:47;;;;;;;2.88;2.55;;;;;;;;;;6224359;28;20113;-69
2022/05/08 12:55:49;;;;;;;2.03;1.70;;;;;;;;;;6221893;28;20280;-69
2022/05/08 13:02:11;;;;;;;2.20;1.55;;;;;;;;;;6226402;28;20050;-70
2022/05/08 13:05:12;;;;;;;2.85;1.80;;;;;;;;;;6222193;28;20344;-70
2022/05/08 13:08:15;;;;;;;1.30;1.20;;;;;;;;;;6227060;28;20261;-69
2022/05/08 13:11:17;;;;;;;2.75;1.42;;;;;;;;;;6227294;28;20236;-69
2022/05/08 13:14:19;;;;;;;1.42;1.20;;;;;;;;;;6218497;28;20113;-69
2022/05/08 13:17:21;;;;;;;1.40;1.27;;;;;;;;;;6218301;28;20046;-69
2022/05/08 13:20:24;;;;;;;1.40;1.27;;;;;;;;;;6222538;28;20245;-69
2022/05/08 13:23:27;;;;;;;2.20;1.73;;;;;;;;;;6224465;28;20076;-69
2022/05/08 13:26:28;;;;;;;2.47;1.70;;;;;;;;;;6223602;28;20050;-69
2022/05/08 13:29:32;;;;;;;2.42;2.10;;;;;;;;;;6221205;28;20054;-69
2022/05/08 13:32:36;;;;;;;2.35;2.15;;;;;;;;;;6225037;28;20110;-69
2022/05/08 13:35:37;;;;;;;2.75;2.28;;;;;;;;;;6222839;28;20056;-69
2022/05/08 13:38:42;;;;;;;2.63;2.25;;;;;;;;;;6219701;28;20045;-69
2022/05/08 13:41:44;;;;;;;6.80;2.70;;;;;;;;;;6225504;28;20060;-69
2022/05/08 13:44:45;;;;;;;3.28;2.03;;;;;;;;;;6214769;28;20088;-69
2022/05/08 13:47:47;;;;;;;2.70;2.03;;;;;;;;;;6226420;28;20054;-69
2022/05/08 13:50:49;;;;;;;2.67;2.47;;;;;;;;;;6225193;28;20109;-69
2022/05/08 13:53:52;;;;;;;2.83;2.50;;;;;;;;;;6230914;28;20046;-69
2022/05/08 13:56:58;;;;;;;3.30;2.58;;;;;;;;;;6225226;28;20108;-69
2022/05/08 14:00:00;;;;;;;3.17;2.70;;;;;;;;;;6229018;28;20050;-69
2022/05/08 14:03:02;;;;;;;4.22;2.40;;;;;;;;;;6226247;28;20384;-69
2022/05/08 14:06:04;;;;;;;4.68;2.80;;;;;;;;;;6225687;28;20050;-69
2022/05/08 14:09:07;;;;;;;2.97;2.38;;;;;;;;;;6227608;28;20272;-69
2022/05/08 14:12:09;;;;;;;2.40;2.20;;;;;;;;;;6232692;28;20053;-69
2022/05/08 14:15:10;;;;;;;3.00;2.70;;;;;;;;;;6232283;28;20049;-70
2022/05/08 14:18:12;;;;;;;2.70;2.30;;;;;;;;;;6223634;28;20064;-70
2022/05/08 14:21:14;;;;;;;4.63;2.53;;;;;;;;;;6229526;28;20046;-69
2022/05/08 14:24:17;;;;;;;5.68;2.60;;;;;;;;;;6230755;28;20050;-70
2022/05/08 14:27:18;;;;;;;2.97;2.47;;;;;;;;;;6223430;28;20124;-70
2022/05/08 14:30:20;;;;;;;2.95;2.65;;;;;;;;;;6220780;28;20441;-70
2022/05/08 14:36:41;;;;;;;3.40;2.60;;;;;;;;;;6226221;28;20360;-70
2022/05/08 14:39:44;;;;;;;2.92;2.42;;;;;;;;;;6224006;28;20332;-70
2022/05/08 14:42:46;;;;;;;2.83;2.63;;;;;;;;;;6230236;28;20108;-70
2022/05/08 14:45:48;;;;;;;4.72;2.35;;;;;;;;;;6225679;28;20409;-69
2022/05/08 14:48:49;;;;;;;4.18;2.50;;;;;;;;;;6228043;28;20069;-69
2022/05/08 14:51:51;;;;;;;3.38;2.83;;;;;;;;;;6221035;28;20042;-69
2022/05/08 14:54:54;;;;;;;3.03;2.70;;;;;;;;;;6218224;28;20045;-69
2022/05/08 14:57:55;;;;;;;;;;;;;;;;;;6223676;28;20264;-69
2022/05/08 15:00:57;;;;;;;3.00;2.70;;;;;;;;;;6221452;28;19917;-69
2022/05/08 15:03:58;;;;;;;3.30;3.00;;;;;;;;;;6223259;28;20211;-69
2022/05/08 15:07:00;;;;;;;3.25;2.95;;;;;;;;;;6225204;28;20046;-69
2022/05/08 15:10:03;;;;;;;3.72;3.42;;;;;;;;;;6225605;28;20050;-69
2022/05/08 15:13:05;;;;;;;6.57;3.38;;;;;;;;;;6223728;28;20053;-69
2022/05/08 15:16:08;;;;;;;3.47;2.97;;;;;;;;;;6221677;28;20054;-68
2022/05/08 15:19:11;;;;;;;4.15;2.72;;;;;;;;;;6220483;28;20113;-68
2022/05/08 15:22:12;;;;;;;;;;;;;;;;;;6219532;28;20081;-68
2022/05/08 15:25:15;;;;;;;3.22;2.70;;;;;;;;;;6220183;28;20204;-68
2022/05/08 15:28:17;;;;;;;3.15;2.85;;;;;;;;;;6226788;28;20050;-68
2022/05/08 15:31:19;;;;;;;3.08;2.60;;;;;;;;;;6224245;28;20234;-68
2022/05/08 15:34:20;;;;;;;4.20;2.45;;;;;;;;;;6223064;28;20057;-68
2022/05/08 15:37:22;;;;;;;2.58;2.35;;;;;;;;;;6225394;28;20042;-68
2022/05/08 15:40:25;;;;;;;2.70;2.50;;;;;;;;;;6226722;28;20103;-70
2022/05/08 15:43:26;;;;;;;2.90;2.55;;;;;;;;;;6226439;28;20328;-70
2022/05/08 15:46:28;;;;;;;2.95;2.65;;;;;;;;;;6226419;28;20068;-70
2022/05/08 15:49:31;;;;;;;4.32;3.05;;;;;;;;;;6216220;28;20081;-70
2022/05/08 15:52:33;;;;;;;3.55;2.90;;;;;;;;;;6223117;28;20050;-70
2022/05/08 15:55:36;;;;;;;3.00;2.60;;;;;;;;;;6222773;28;20049;-70
2022/05/08 15:58:39;;;;;;;6.93;2.70;;;;;;;;;;6218776;28;20097;-70
2022/05/08 16:01:42;;;;;;;2.70;2.50;;;;;;;;;;6225808;28;20045;-70
2022/05/08 16:04:46;;;;;;;3.20;2.90;;;;;;;;;;6216316;28;20054;-70
2022/05/08 16:07:47;;;;;;;5.22;2.58;;;;;;;;;;6214484;28;20054;-70
2022/05/08 16:10:51;;;;;;;3.60;3.20;;;;;;;;;;6181833;28;1131282;-70
2022/05/08 16:23:50;;;;;;;3.63;2.92;;;;;;;;;;6222804;28;20057;-70
2022/05/08 16:26:53;;;;;;;5.53;3.67;;;;;;;;;;6223257;28;20268;-69
2022/05/08 16:29:54;;;;;;;4.25;3.60;;;;;;;;;;6220465;28;20060;-70
2022/05/08 16:32:56;;;;;;;5.85;3.35;;;;;;;;;;6213604;28;20145;-70
2022/05/08 16:35:58;;;;;;;3.60;3.30;;;;;;;;;;6214662;28;20046;-70
2022/05/08 16:38:59;;;;;;;3.72;2.80;;;;;;;;;;6226257;28;20214;-70
2022/05/08 16:42:03;;;;;;;4.63;2.95;;;;;;;;;;6221335;28;20049;-69
2022/05/08 16:45:05;;;;;;;4.15;2.83;;;;;;;;;;6219307;28;20106;-69
2022/05/08 16:48:07;;;;;;;5.63;3.00;;;;;;;;;;6226458;28;20096;-70
2022/05/08 16:51:09;;;;;;;5.47;3.22;;;;;;;;;;6222510;28;20072;-70
2022/05/08 16:54:10;;;;;;;6.22;2.70;;;;;;;;;;6222249;28;20050;-70
2022/05/08 16:57:13;;;;;;;3.03;2.58;;;;;;;;;;6219147;28;20349;-69
2022/05/08 17:00:16;;;;;;;3.88;2.63;;;;;;;;;;6224757;28;20128;-71
2022/05/08 17:03:18;;;;;;;3.63;3.10;;;;;;;;;;6229332;28;20058;-70
2022/05/08 17:06:19;;;;;;;5.50;3.30;;;;;;;;;;6222689;28;20050;-69
2022/05/08 17:09:21;;;;;;;9.82;2.97;;;;;;;;;;6221800;28;20379;-69
2022/05/08 17:12:24;;;;;;;5.18;3.00;;;;;;;;;;6226524;28;20256;-69
2022/05/08 17:15:25;;;;;;;4.03;3.05;;;;;;;;;;6224542;28;20057;-70
2022/05/08 17:18:27;;;;;;;5.32;2.92;;;;;;;;;;6224841;28;20586;-70
2022/05/08 17:21:29;;;;;;;4.60;2.85;;;;;;;;;;6225120;28;20144;-69
2022/05/08 17:24:31;;;;;;;3.05;2.50;;;;;;;;;;6226109;28;20073;-70
2022/05/08 17:30:53;;;;;;;2.88;2.35;;;;;;;;;;6228550;28;20049;-71
2022/05/08 17:33:55;;;;;;;8.60;3.17;;;;;;;;;;6226547;28;20042;-68
2022/05/08 17:36:56;;;;;;;4.60;3.33;;;;;;;;;;6224989;28;20244;-68
2022/05/08 17:39:58;;;;;;;6.78;3.15;;;;;;;;;;6226825;28;20045;-68
2022/05/08 17:43:01;;;;;;;5.35;3.58;;;;;;;;;;6221129;28;20050;-68
2022/05/08 17:46:02;;;;;;;7.38;3.33;;;;;;;;;;6227368;28;20042;-66
2022/05/08 17:49:04;;;;;;;6.63;4.07;;;;;;;;;;6227980;28;20049;-70
2022/05/08 17:52:06;;;;;;;6.82;3.65;;;;;;;;;;6229547;28;20209;-70
2022/05/08 17:55:08;;;;;;;5.50;3.05;;;;;;;;;;6228357;28;20045;-69
2022/05/08 17:58:11;;;;;;;6.55;3.38;;;;;;;;;;6229164;28;20053;-70
2022/05/08 18:01:12;;;;;;;4.63;3.47;;;;;;;;;;6224164;28;20042;-70
2022/05/08 18:07:33;;;;;;;4.70;3.28;;;;;;;;;;6222838;28;20054;-69
2022/05/08 18:10:35;;;;;;;4.00;3.17;;;;;;;;;;6219616;28;20105;-69
2022/05/08 18:13:39;;;;;;;4.38;3.55;;;;;;;;;;6224513;28;20105;-69
2022/05/08 18:16:40;;;;;;;4.82;3.47;;;;;;;;;;6221796;28;20113;-69
2022/05/08 18:19:42;;;;;;;5.72;3.20;;;;;;;;;;6225321;28;20085;-70
2022/05/08 18:22:44;;;;;;;4.05;3.30;;;;;;;;;;6226713;28;20046;-70
2022/05/08 18:25:47;;;;;;;4.32;3.58;;;;;;;;;;6221411;28;20252;-70
2022/05/08 18:28:50;;;;;;;5.00;3.35;;;;;;;;;;6226500;28;20100;-70
2022/05/08 18:31:52;;;;;;;4.85;3.20;;;;;;;;;;6220688;28;20387;-70
2022/05/08 18:34:53;;;;;;;5.38;3.05;;;;;;;;;;6222100;28;20108;-70
2022/05/08 18:37:55;;;;;;;3.50;2.78;;;;;;;;;;6228429;28;20050;-70
2022/05/08 18:40:59;;;;;;;4.32;2.83;;;;;;;;;;6219871;28;20088;-67
2022/05/08 18:44:03;;;;;;;6.75;3.40;;;;;;;;;;6232023;28;20113;-69
2022/05/08 18:47:05;;;;;;;4.20;3.28;;;;;;;;;;6230350;28;20050;-70
2022/05/08 18:50:07;;;;;;;5.22;3.10;;;;;;;;;;6227914;28;20057;-69
2022/05/08 18:53:09;;;;;;;4.53;3.47;;;;;;;;;;6226647;28;20229;-68
2022/05/08 18:56:10;;;;;;;5.90;4.30;;;;;;;;;;6227074;28;20077;-69
2022/05/08 18:59:14;;;;;;;4.43;4.00;;;;;;;;;;6225304;28;20058;-68
2022/05/08 19:02:16;;;;;;;5.82;4.28;;;;;;;;;;6230106;28;20109;-69
2022/05/08 19:05:18;;;;;;;6.38;3.97;;;;;;;;;;6226027;28;20064;-68
2022/05/08 19:08:19;;;;;;;5.13;3.95;;;;;;;;;;6229783;28;20053;-69